sensor_id;sensor_type;location;lat;lon;timestamp;P1;durP1;ratioP1;P2;durP2;ratioP2
5945;SDS011;2998;48.206;16.394;2023-02-13T00:00:55;22.47;;;13.70;;
5945;SDS011;2998;48.206;16.394;2023-02-13T00:03:23;26.27;;;14.03;;
5945;SDS011;2998;48.206;16.394;2023-02-13T00:05:53;17.30;;;11.60;;
5945;SDS011;2998;48.206;16.394;2023-02-13T00:08:21;21.10;;;14.67;;
5945;SDS011;2998;48.206;16.394;2023-02-13T00:10:49;22.67;;;15.60;;
5945;SDS011;2998;48.206;16.394;2023-02-13T00:13:16;24.77;;;16.83;;
5945;SDS011;2998;48.206;16.394;2023-02-13T00:15:44;20.20;;;13.17;;
5945;SDS011;2998;48.206;16.394;2023-02-13T00:18:12;12.80;;;10.67;;
5945;SDS011;2998;48.206;16.394;2023-02-13T00:20:40;17.87;;;13.47;;
5945;SDS011;2998;48.206;16.394;2023-02-13T00:23:09;12.90;;;10.17;;
5945;SDS011;2998;48.206;16.394;2023-02-13T00:25:37;23.13;;;12.70;;
5945;SDS011;2998;48.206;16.394;2023-02-13T00:28:05;12.10;;;10.07;;
5945;SDS011;2998;48.206;16.394;2023-02-13T00:30:33;18.90;;;12.33;;
5945;SDS011;2998;48.206;16.394;2023-02-13T00:33:01;12.40;;;10.83;;
5945;SDS011;2998;48.206;16.394;2023-02-13T00:35:29;13.60;;;10.23;;
5945;SDS011;2998;48.206;16.394;2023-02-13T00:37:57;24.67;;;14.57;;
5945;SDS011;2998;48.206;16.394;2023-02-13T00:40:26;16.03;;;13.27;;
5945;SDS011;2998;48.206;16.394;2023-02-13T00:42:54;16.63;;;11.07;;
5945;SDS011;2998;48.206;16.394;2023-02-13T00:45:22;21.97;;;15.93;;
5945;SDS011;2998;48.206;16.394;2023-02-13T00:47:50;20.80;;;15.40;;
5945;SDS011;2998;48.206;16.394;2023-02-13T00:50:18;79.73;;;41.27;;
5945;SDS011;2998;48.206;16.394;2023-02-13T00:52:46;27.47;;;18.57;;
5945;SDS011;2998;48.206;16.394;2023-02-13T00:55:14;13.93;;;10.63;;
5945;SDS011;2998;48.206;16.394;2023-02-13T00:57:44;11.60;;;10.37;;
5945;SDS011;2998;48.206;16.394;2023-02-13T01:00:12;13.77;;;11.00;;
5945;SDS011;2998;48.206;16.394;2023-02-13T01:02:41;14.37;;;10.50;;
5945;SDS011;2998;48.206;16.394;2023-02-13T01:05:09;23.17;;;17.00;;
5945;SDS011;2998;48.206;16.394;2023-02-13T01:07:37;19.77;;;14.80;;
5945;SDS011;2998;48.206;16.394;2023-02-13T01:10:06;19.53;;;13.47;;
5945;SDS011;2998;48.206;16.394;2023-02-13T01:12:34;13.87;;;11.30;;
5945;SDS011;2998;48.206;16.394;2023-02-13T01:15:03;18.20;;;14.53;;
5945;SDS011;2998;48.206;16.394;2023-02-13T01:17:32;69.37;;;43.27;;
5945;SDS011;2998;48.206;16.394;2023-02-13T01:20:00;24.30;;;16.17;;
5945;SDS011;2998;48.206;16.394;2023-02-13T01:22:28;9.70;;;8.00;;
5945;SDS011;2998;48.206;16.394;2023-02-13T01:24:56;13.57;;;9.90;;
5945;SDS011;2998;48.206;16.394;2023-02-13T01:27:24;26.37;;;18.73;;
5945;SDS011;2998;48.206;16.394;2023-02-13T01:29:53;33.03;;;23.00;;
5945;SDS011;2998;48.206;16.394;2023-02-13T01:32:23;29.40;;;20.00;;
5945;SDS011;2998;48.206;16.394;2023-02-13T01:34:51;28.37;;;20.80;;
5945;SDS011;2998;48.206;16.394;2023-02-13T01:37:19;64.00;;;37.73;;
5945;SDS011;2998;48.206;16.394;2023-02-13T01:39:47;20.03;;;13.23;;
5945;SDS011;2998;48.206;16.394;2023-02-13T01:42:16;24.60;;;17.00;;
5945;SDS011;2998;48.206;16.394;2023-02-13T01:44:49;24.40;;;17.73;;
5945;SDS011;2998;48.206;16.394;2023-02-13T01:47:21;21.10;;;15.00;;
5945;SDS011;2998;48.206;16.394;2023-02-13T01:49:57;20.40;;;12.00;;
5945;SDS011;2998;48.206;16.394;2023-02-13T01:52:29;15.23;;;9.07;;
5945;SDS011;2998;48.206;16.394;2023-02-13T01:54:57;13.80;;;10.33;;
5945;SDS011;2998;48.206;16.394;2023-02-13T01:57:25;15.37;;;10.80;;
5945;SDS011;2998;48.206;16.394;2023-02-13T01:59:56;18.60;;;11.90;;
5945;SDS011;2998;48.206;16.394;2023-02-13T02:02:28;16.30;;;10.67;;
5945;SDS011;2998;48.206;16.394;2023-02-13T02:04:58;11.90;;;8.60;;
5945;SDS011;2998;48.206;16.394;2023-02-13T02:07:26;14.67;;;9.30;;
5945;SDS011;2998;48.206;16.394;2023-02-13T02:09:57;10.83;;;9.07;;
5945;SDS011;2998;48.206;16.394;2023-02-13T02:12:28;13.60;;;9.73;;
5945;SDS011;2998;48.206;16.394;2023-02-13T02:15:01;10.27;;;8.37;;
5945;SDS011;2998;48.206;16.394;2023-02-13T02:17:32;10.07;;;8.73;;
5945;SDS011;2998;48.206;16.394;2023-02-13T02:20:03;8.90;;;8.00;;
5945;SDS011;2998;48.206;16.394;2023-02-13T02:26:19;15.27;;;9.40;;
5945;SDS011;2998;48.206;16.394;2023-02-13T02:29:02;27.70;;;17.87;;
5945;SDS011;2998;48.206;16.394;2023-02-13T02:32:12;15.60;;;12.10;;
5945;SDS011;2998;48.206;16.394;2023-02-13T02:34:49;23.93;;;15.33;;
5945;SDS011;2998;48.206;16.394;2023-02-13T02:37:26;25.60;;;18.67;;
5945;SDS011;2998;48.206;16.394;2023-02-13T02:40:02;8.07;;;7.33;;
5945;SDS011;2998;48.206;16.394;2023-02-13T02:42:38;9.97;;;8.90;;
5945;SDS011;2998;48.206;16.394;2023-02-13T02:45:15;10.17;;;7.70;;
5945;SDS011;2998;48.206;16.394;2023-02-13T02:47:49;8.77;;;7.80;;
5945;SDS011;2998;48.206;16.394;2023-02-13T02:50:38;8.83;;;7.73;;
5945;SDS011;2998;48.206;16.394;2023-02-13T02:53:14;9.23;;;7.43;;
5945;SDS011;2998;48.206;16.394;2023-02-13T02:55:46;47.50;;;30.03;;
5945;SDS011;2998;48.206;16.394;2023-02-13T02:58:18;21.27;;;13.97;;
5945;SDS011;2998;48.206;16.394;2023-02-13T03:01:06;16.97;;;11.00;;
5945;SDS011;2998;48.206;16.394;2023-02-13T03:03:55;48.93;;;30.90;;
5945;SDS011;2998;48.206;16.394;2023-02-13T03:06:43;30.53;;;21.60;;
5945;SDS011;2998;48.206;16.394;2023-02-13T03:09:14;34.07;;;19.53;;
5945;SDS011;2998;48.206;16.394;2023-02-13T03:12:02;11.17;;;8.70;;
5945;SDS011;2998;48.206;16.394;2023-02-13T03:14:47;23.00;;;15.13;;
5945;SDS011;2998;48.206;16.394;2023-02-13T03:17:16;16.40;;;12.77;;
5945;SDS011;2998;48.206;16.394;2023-02-13T03:20:09;18.43;;;13.07;;
5945;SDS011;2998;48.206;16.394;2023-02-13T03:23:02;23.33;;;14.60;;
5945;SDS011;2998;48.206;16.394;2023-02-13T03:25:44;24.60;;;13.57;;
5945;SDS011;2998;48.206;16.394;2023-02-13T03:28:19;21.23;;;13.30;;
5945;SDS011;2998;48.206;16.394;2023-02-13T03:31:10;12.53;;;9.27;;
5945;SDS011;2998;48.206;16.394;2023-02-13T03:33:46;8.60;;;7.70;;
5945;SDS011;2998;48.206;16.394;2023-02-13T03:36:24;7.17;;;6.47;;
5945;SDS011;2998;48.206;16.394;2023-02-13T03:39:15;12.40;;;8.47;;
5945;SDS011;2998;48.206;16.394;2023-02-13T03:41:48;14.53;;;8.87;;
5945;SDS011;2998;48.206;16.394;2023-02-13T03:44:19;11.27;;;8.60;;
5945;SDS011;2998;48.206;16.394;2023-02-13T03:46:51;9.50;;;8.27;;
5945;SDS011;2998;48.206;16.394;2023-02-13T03:49:21;10.37;;;8.63;;
5945;SDS011;2998;48.206;16.394;2023-02-13T03:52:24;9.70;;;7.77;;
5945;SDS011;2998;48.206;16.394;2023-02-13T03:54:56;11.93;;;9.43;;
5945;SDS011;2998;48.206;16.394;2023-02-13T03:57:44;10.90;;;8.33;;
5945;SDS011;2998;48.206;16.394;2023-02-13T04:00:32;10.23;;;8.60;;
5945;SDS011;2998;48.206;16.394;2023-02-13T04:03:04;42.10;;;27.43;;
5945;SDS011;2998;48.206;16.394;2023-02-13T04:05:35;20.37;;;15.07;;
5945;SDS011;2998;48.206;16.394;2023-02-13T04:08:07;21.00;;;13.77;;
5945;SDS011;2998;48.206;16.394;2023-02-13T04:10:36;20.90;;;13.10;;
5945;SDS011;2998;48.206;16.394;2023-02-13T04:13:11;17.40;;;13.00;;
5945;SDS011;2998;48.206;16.394;2023-02-13T04:15:42;16.30;;;12.77;;
5945;SDS011;2998;48.206;16.394;2023-02-13T04:18:13;21.80;;;15.30;;
5945;SDS011;2998;48.206;16.394;2023-02-13T04:20:42;24.63;;;17.53;;
5945;SDS011;2998;48.206;16.394;2023-02-13T04:23:12;17.33;;;13.40;;
5945;SDS011;2998;48.206;16.394;2023-02-13T04:25:40;26.60;;;18.70;;
5945;SDS011;2998;48.206;16.394;2023-02-13T04:28:11;11.30;;;8.80;;
5945;SDS011;2998;48.206;16.394;2023-02-13T04:30:39;8.63;;;7.67;;
5945;SDS011;2998;48.206;16.394;2023-02-13T04:33:07;11.63;;;8.43;;
5945;SDS011;2998;48.206;16.394;2023-02-13T04:35:35;11.97;;;9.13;;
5945;SDS011;2998;48.206;16.394;2023-02-13T04:38:03;13.07;;;8.50;;
5945;SDS011;2998;48.206;16.394;2023-02-13T04:40:32;10.43;;;9.33;;
5945;SDS011;2998;48.206;16.394;2023-02-13T04:43:00;18.90;;;11.03;;
5945;SDS011;2998;48.206;16.394;2023-02-13T04:45:28;21.33;;;15.10;;
5945;SDS011;2998;48.206;16.394;2023-02-13T04:47:56;20.00;;;14.30;;
5945;SDS011;2998;48.206;16.394;2023-02-13T04:50:24;16.83;;;12.63;;
5945;SDS011;2998;48.206;16.394;2023-02-13T04:52:53;22.03;;;15.73;;
5945;SDS011;2998;48.206;16.394;2023-02-13T04:55:22;22.23;;;15.97;;
5945;SDS011;2998;48.206;16.394;2023-02-13T04:57:52;17.50;;;14.40;;
5945;SDS011;2998;48.206;16.394;2023-02-13T05:00:20;17.47;;;8.40;;
5945;SDS011;2998;48.206;16.394;2023-02-13T05:02:49;8.67;;;7.77;;
5945;SDS011;2998;48.206;16.394;2023-02-13T05:05:17;10.17;;;7.50;;
5945;SDS011;2998;48.206;16.394;2023-02-13T05:07:45;10.20;;;7.70;;
5945;SDS011;2998;48.206;16.394;2023-02-13T05:10:13;8.83;;;7.20;;
5945;SDS011;2998;48.206;16.394;2023-02-13T05:12:41;13.13;;;9.93;;
5945;SDS011;2998;48.206;16.394;2023-02-13T05:15:10;48.10;;;28.83;;
5945;SDS011;2998;48.206;16.394;2023-02-13T05:17:38;27.10;;;19.30;;
5945;SDS011;2998;48.206;16.394;2023-02-13T05:20:06;17.80;;;13.70;;
5945;SDS011;2998;48.206;16.394;2023-02-13T05:22:35;30.20;;;21.90;;
5945;SDS011;2998;48.206;16.394;2023-02-13T05:25:20;20.73;;;14.20;;
5945;SDS011;2998;48.206;16.394;2023-02-13T05:27:48;15.73;;;10.77;;
5945;SDS011;2998;48.206;16.394;2023-02-13T05:30:17;14.07;;;9.30;;
5945;SDS011;2998;48.206;16.394;2023-02-13T05:32:45;14.20;;;10.27;;
5945;SDS011;2998;48.206;16.394;2023-02-13T05:35:16;15.23;;;10.07;;
5945;SDS011;2998;48.206;16.394;2023-02-13T05:37:44;12.70;;;9.67;;
5945;SDS011;2998;48.206;16.394;2023-02-13T05:40:12;7.33;;;6.63;;
5945;SDS011;2998;48.206;16.394;2023-02-13T05:42:40;7.60;;;6.97;;
5945;SDS011;2998;48.206;16.394;2023-02-13T05:45:09;27.30;;;17.57;;
5945;SDS011;2998;48.206;16.394;2023-02-13T05:47:38;23.57;;;13.67;;
5945;SDS011;2998;48.206;16.394;2023-02-13T05:50:06;104.17;;;51.17;;
5945;SDS011;2998;48.206;16.394;2023-02-13T05:52:35;86.57;;;45.13;;
5945;SDS011;2998;48.206;16.394;2023-02-13T05:55:03;24.23;;;15.33;;
5945;SDS011;2998;48.206;16.394;2023-02-13T05:57:31;11.67;;;10.43;;
5945;SDS011;2998;48.206;16.394;2023-02-13T06:00:00;9.03;;;7.90;;
5945;SDS011;2998;48.206;16.394;2023-02-13T06:02:28;7.70;;;6.93;;
5945;SDS011;2998;48.206;16.394;2023-02-13T06:04:57;8.10;;;7.33;;
5945;SDS011;2998;48.206;16.394;2023-02-13T06:07:26;7.67;;;6.90;;
5945;SDS011;2998;48.206;16.394;2023-02-13T06:09:54;10.67;;;9.57;;
5945;SDS011;2998;48.206;16.394;2023-02-13T06:12:24;12.60;;;9.57;;
5945;SDS011;2998;48.206;16.394;2023-02-13T06:14:52;12.37;;;9.13;;
5945;SDS011;2998;48.206;16.394;2023-02-13T06:17:20;9.10;;;6.90;;
5945;SDS011;2998;48.206;16.394;2023-02-13T06:19:48;11.03;;;7.73;;
5945;SDS011;2998;48.206;16.394;2023-02-13T06:22:18;18.83;;;6.90;;
5945;SDS011;2998;48.206;16.394;2023-02-13T06:24:45;8.40;;;7.03;;
5945;SDS011;2998;48.206;16.394;2023-02-13T06:27:13;8.80;;;8.00;;
5945;SDS011;2998;48.206;16.394;2023-02-13T06:29:41;10.97;;;8.17;;
5945;SDS011;2998;48.206;16.394;2023-02-13T06:32:09;11.77;;;8.27;;
5945;SDS011;2998;48.206;16.394;2023-02-13T06:34:37;17.70;;;10.10;;
5945;SDS011;2998;48.206;16.394;2023-02-13T06:37:05;20.00;;;15.87;;
5945;SDS011;2998;48.206;16.394;2023-02-13T06:39:34;21.23;;;16.10;;
5945;SDS011;2998;48.206;16.394;2023-02-13T06:42:02;11.40;;;8.40;;
5945;SDS011;2998;48.206;16.394;2023-02-13T06:44:30;12.43;;;9.60;;
5945;SDS011;2998;48.206;16.394;2023-02-13T06:46:58;15.43;;;9.53;;
5945;SDS011;2998;48.206;16.394;2023-02-13T06:49:26;18.10;;;13.70;;
5945;SDS011;2998;48.206;16.394;2023-02-13T06:51:54;28.87;;;19.43;;
5945;SDS011;2998;48.206;16.394;2023-02-13T06:54:21;8.73;;;7.70;;
5945;SDS011;2998;48.206;16.394;2023-02-13T06:57:11;11.37;;;9.10;;
5945;SDS011;2998;48.206;16.394;2023-02-13T06:59:39;14.30;;;9.17;;
5945;SDS011;2998;48.206;16.394;2023-02-13T07:02:07;10.13;;;8.17;;
5945;SDS011;2998;48.206;16.394;2023-02-13T07:04:35;14.07;;;9.07;;
5945;SDS011;2998;48.206;16.394;2023-02-13T07:07:03;11.73;;;10.50;;
5945;SDS011;2998;48.206;16.394;2023-02-13T07:09:31;13.97;;;10.47;;
5945;SDS011;2998;48.206;16.394;2023-02-13T07:12:01;26.30;;;16.27;;
5945;SDS011;2998;48.206;16.394;2023-02-13T07:14:31;14.93;;;10.90;;
5945;SDS011;2998;48.206;16.394;2023-02-13T07:16:59;22.33;;;11.23;;
5945;SDS011;2998;48.206;16.394;2023-02-13T07:19:26;17.27;;;10.90;;
5945;SDS011;2998;48.206;16.394;2023-02-13T07:21:54;12.20;;;9.57;;
5945;SDS011;2998;48.206;16.394;2023-02-13T07:24:22;13.50;;;10.17;;
5945;SDS011;2998;48.206;16.394;2023-02-13T07:26:50;10.37;;;8.93;;
5945;SDS011;2998;48.206;16.394;2023-02-13T07:29:18;11.37;;;8.70;;
5945;SDS011;2998;48.206;16.394;2023-02-13T07:31:47;12.90;;;9.53;;
5945;SDS011;2998;48.206;16.394;2023-02-13T07:34:15;10.70;;;9.50;;
5945;SDS011;2998;48.206;16.394;2023-02-13T07:36:43;15.40;;;12.30;;
5945;SDS011;2998;48.206;16.394;2023-02-13T07:39:11;25.40;;;14.07;;
5945;SDS011;2998;48.206;16.394;2023-02-13T07:41:39;23.30;;;12.80;;
5945;SDS011;2998;48.206;16.394;2023-02-13T07:44:07;31.20;;;17.50;;
5945;SDS011;2998;48.206;16.394;2023-02-13T07:46:35;21.20;;;14.37;;
5945;SDS011;2998;48.206;16.394;2023-02-13T07:49:04;17.80;;;12.57;;
5945;SDS011;2998;48.206;16.394;2023-02-13T07:51:32;16.50;;;12.47;;
5945;SDS011;2998;48.206;16.394;2023-02-13T07:54:00;23.27;;;17.53;;
5945;SDS011;2998;48.206;16.394;2023-02-13T07:56:28;23.10;;;17.50;;
5945;SDS011;2998;48.206;16.394;2023-02-13T07:58:56;23.10;;;16.00;;
5945;SDS011;2998;48.206;16.394;2023-02-13T08:01:24;24.80;;;18.77;;
5945;SDS011;2998;48.206;16.394;2023-02-13T08:03:52;32.57;;;24.20;;
5945;SDS011;2998;48.206;16.394;2023-02-13T08:06:21;21.30;;;16.43;;
5945;SDS011;2998;48.206;16.394;2023-02-13T08:08:49;18.93;;;16.03;;
5945;SDS011;2998;48.206;16.394;2023-02-13T08:11:37;24.27;;;15.77;;
5945;SDS011;2998;48.206;16.394;2023-02-13T08:14:20;24.10;;;16.13;;
5945;SDS011;2998;48.206;16.394;2023-02-13T08:16:48;21.60;;;15.13;;
5945;SDS011;2998;48.206;16.394;2023-02-13T08:19:16;22.90;;;15.67;;
5945;SDS011;2998;48.206;16.394;2023-02-13T08:21:45;28.40;;;19.37;;
5945;SDS011;2998;48.206;16.394;2023-02-13T08:24:13;49.23;;;32.70;;
5945;SDS011;2998;48.206;16.394;2023-02-13T08:26:41;28.63;;;19.27;;
5945;SDS011;2998;48.206;16.394;2023-02-13T08:29:09;19.33;;;13.80;;
5945;SDS011;2998;48.206;16.394;2023-02-13T08:31:37;17.17;;;9.70;;
5945;SDS011;2998;48.206;16.394;2023-02-13T08:34:05;13.67;;;9.10;;
5945;SDS011;2998;48.206;16.394;2023-02-13T08:36:33;10.20;;;8.50;;
5945;SDS011;2998;48.206;16.394;2023-02-13T08:39:02;8.30;;;7.50;;
5945;SDS011;2998;48.206;16.394;2023-02-13T08:41:30;11.73;;;8.87;;
5945;SDS011;2998;48.206;16.394;2023-02-13T08:43:58;12.27;;;9.17;;
5945;SDS011;2998;48.206;16.394;2023-02-13T08:46:26;14.47;;;10.67;;
5945;SDS011;2998;48.206;16.394;2023-02-13T08:48:54;11.93;;;9.23;;
5945;SDS011;2998;48.206;16.394;2023-02-13T08:51:22;12.53;;;10.00;;
5945;SDS011;2998;48.206;16.394;2023-02-13T08:53:50;15.87;;;10.10;;
5945;SDS011;2998;48.206;16.394;2023-02-13T08:56:19;13.70;;;9.87;;
5945;SDS011;2998;48.206;16.394;2023-02-13T08:58:47;12.20;;;8.83;;
5945;SDS011;2998;48.206;16.394;2023-02-13T09:01:16;27.13;;;15.30;;
5945;SDS011;2998;48.206;16.394;2023-02-13T09:03:44;15.77;;;12.10;;
5945;SDS011;2998;48.206;16.394;2023-02-13T09:06:12;12.80;;;10.30;;
5945;SDS011;2998;48.206;16.394;2023-02-13T09:08:39;28.63;;;17.27;;
5945;SDS011;2998;48.206;16.394;2023-02-13T09:11:08;21.83;;;15.70;;
5945;SDS011;2998;48.206;16.394;2023-02-13T09:13:38;17.03;;;14.10;;
5945;SDS011;2998;48.206;16.394;2023-02-13T09:16:06;16.50;;;13.17;;
5945;SDS011;2998;48.206;16.394;2023-02-13T09:18:35;38.40;;;23.53;;
5945;SDS011;2998;48.206;16.394;2023-02-13T09:21:04;70.23;;;38.77;;
5945;SDS011;2998;48.206;16.394;2023-02-13T09:23:33;40.50;;;25.47;;
5945;SDS011;2998;48.206;16.394;2023-02-13T09:26:03;23.90;;;14.57;;
5945;SDS011;2998;48.206;16.394;2023-02-13T09:28:32;18.50;;;13.13;;
5945;SDS011;2998;48.206;16.394;2023-02-13T09:31:05;17.03;;;12.63;;
5945;SDS011;2998;48.206;16.394;2023-02-13T09:33:33;21.20;;;10.97;;
5945;SDS011;2998;48.206;16.394;2023-02-13T09:36:05;15.53;;;11.53;;
5945;SDS011;2998;48.206;16.394;2023-02-13T09:38:33;13.30;;;11.90;;
5945;SDS011;2998;48.206;16.394;2023-02-13T09:41:01;15.60;;;10.80;;
5945;SDS011;2998;48.206;16.394;2023-02-13T09:43:32;15.67;;;10.60;;
5945;SDS011;2998;48.206;16.394;2023-02-13T09:46:06;16.73;;;10.53;;
5945;SDS011;2998;48.206;16.394;2023-02-13T09:48:38;10.60;;;8.80;;
5945;SDS011;2998;48.206;16.394;2023-02-13T09:51:09;12.50;;;8.70;;
5945;SDS011;2998;48.206;16.394;2023-02-13T09:53:41;14.33;;;10.00;;
5945;SDS011;2998;48.206;16.394;2023-02-13T09:56:14;10.40;;;9.30;;
5945;SDS011;2998;48.206;16.394;2023-02-13T09:58:45;11.60;;;8.80;;
5945;SDS011;2998;48.206;16.394;2023-02-13T10:01:17;14.60;;;11.93;;
5945;SDS011;2998;48.206;16.394;2023-02-13T10:03:49;10.87;;;9.23;;
5945;SDS011;2998;48.206;16.394;2023-02-13T10:06:35;11.80;;;9.03;;
5945;SDS011;2998;48.206;16.394;2023-02-13T10:09:16;13.20;;;10.20;;
5945;SDS011;2998;48.206;16.394;2023-02-13T10:11:55;15.60;;;11.00;;
5945;SDS011;2998;48.206;16.394;2023-02-13T10:14:29;14.23;;;10.50;;
5945;SDS011;2998;48.206;16.394;2023-02-13T10:17:01;10.67;;;8.90;;
5945;SDS011;2998;48.206;16.394;2023-02-13T10:19:33;8.97;;;7.97;;
5945;SDS011;2998;48.206;16.394;2023-02-13T10:22:04;9.13;;;8.13;;
5945;SDS011;2998;48.206;16.394;2023-02-13T10:24:36;9.03;;;8.13;;
5945;SDS011;2998;48.206;16.394;2023-02-13T10:27:09;9.13;;;8.23;;
5945;SDS011;2998;48.206;16.394;2023-02-13T10:29:45;9.17;;;8.37;;
5945;SDS011;2998;48.206;16.394;2023-02-13T10:32:37;15.40;;;10.17;;
5945;SDS011;2998;48.206;16.394;2023-02-13T10:35:19;11.80;;;9.17;;
5945;SDS011;2998;48.206;16.394;2023-02-13T10:37:50;11.73;;;8.37;;
5945;SDS011;2998;48.206;16.394;2023-02-13T10:40:20;8.60;;;7.80;;
5945;SDS011;2998;48.206;16.394;2023-02-13T10:42:51;14.30;;;10.60;;
5945;SDS011;2998;48.206;16.394;2023-02-13T10:45:31;11.73;;;8.97;;
5945;SDS011;2998;48.206;16.394;2023-02-13T10:48:17;3.20;;;2.90;;
5945;SDS011;2998;48.206;16.394;2023-02-13T10:51:03;3.27;;;3.17;;
5945;SDS011;2998;48.206;16.394;2023-02-13T10:53:35;3.90;;;3.70;;
5945;SDS011;2998;48.206;16.394;2023-02-13T10:56:18;3.40;;;3.20;;
5945;SDS011;2998;48.206;16.394;2023-02-13T10:58:53;4.13;;;3.83;;
5945;SDS011;2998;48.206;16.394;2023-02-13T11:01:31;4.40;;;4.10;;
5945;SDS011;2998;48.206;16.394;2023-02-13T11:04:05;3.80;;;3.50;;
5945;SDS011;2998;48.206;16.394;2023-02-13T11:06:35;3.87;;;3.67;;
5945;SDS011;2998;48.206;16.394;2023-02-13T11:09:04;3.80;;;3.60;;
5945;SDS011;2998;48.206;16.394;2023-02-13T11:11:34;3.50;;;3.30;;
5945;SDS011;2998;48.206;16.394;2023-02-13T11:16:51;6.00;;;5.53;;
5945;SDS011;2998;48.206;16.394;2023-02-13T11:19:25;5.00;;;4.60;;
5945;SDS011;2998;48.206;16.394;2023-02-13T11:21:57;3.73;;;3.47;;
5945;SDS011;2998;48.206;16.394;2023-02-13T11:24:27;4.00;;;3.73;;
5945;SDS011;2998;48.206;16.394;2023-02-13T11:26:57;3.73;;;3.47;;
5945;SDS011;2998;48.206;16.394;2023-02-13T11:29:28;2.13;;;2.03;;
5945;SDS011;2998;48.206;16.394;2023-02-13T11:32:01;1.20;;;1.20;;
5945;SDS011;2998;48.206;16.394;2023-02-13T11:34:39;2.07;;;1.97;;
5945;SDS011;2998;48.206;16.394;2023-02-13T11:37:13;1.77;;;1.67;;
5945;SDS011;2998;48.206;16.394;2023-02-13T11:39:44;1.57;;;1.47;;
5945;SDS011;2998;48.206;16.394;2023-02-13T11:42:18;1.57;;;1.43;;
5945;SDS011;2998;48.206;16.394;2023-02-13T11:44:49;1.50;;;1.40;;
5945;SDS011;2998;48.206;16.394;2023-02-13T11:47:28;1.70;;;1.60;;
5945;SDS011;2998;48.206;16.394;2023-02-13T11:49:59;1.70;;;1.60;;
5945;SDS011;2998;48.206;16.394;2023-02-13T11:52:27;1.80;;;1.70;;
5945;SDS011;2998;48.206;16.394;2023-02-13T11:54:57;1.77;;;1.67;;
5945;SDS011;2998;48.206;16.394;2023-02-13T11:57:30;1.70;;;1.60;;
5945;SDS011;2998;48.206;16.394;2023-02-13T12:00:00;1.70;;;1.60;;
5945;SDS011;2998;48.206;16.394;2023-02-13T12:02:46;1.50;;;1.40;;
5945;SDS011;2998;48.206;16.394;2023-02-13T12:05:18;2.47;;;2.27;;
5945;SDS011;2998;48.206;16.394;2023-02-13T12:07:46;3.77;;;2.17;;
5945;SDS011;2998;48.206;16.394;2023-02-13T12:10:16;3.50;;;3.30;;
5945;SDS011;2998;48.206;16.394;2023-02-13T12:12:49;2.80;;;2.70;;
5945;SDS011;2998;48.206;16.394;2023-02-13T12:15:21;3.30;;;3.10;;
5945;SDS011;2998;48.206;16.394;2023-02-13T12:17:58;3.63;;;3.43;;
5945;SDS011;2998;48.206;16.394;2023-02-13T12:20:35;4.80;;;4.50;;
5945;SDS011;2998;48.206;16.394;2023-02-13T12:23:09;4.83;;;4.40;;
5945;SDS011;2998;48.206;16.394;2023-02-13T12:25:57;5.17;;;4.80;;
5945;SDS011;2998;48.206;16.394;2023-02-13T12:28:34;5.10;;;4.80;;
5945;SDS011;2998;48.206;16.394;2023-02-13T12:31:22;8.10;;;5.60;;
5945;SDS011;2998;48.206;16.394;2023-02-13T12:34:07;4.87;;;4.50;;
5945;SDS011;2998;48.206;16.394;2023-02-13T12:36:51;5.20;;;4.80;;
5945;SDS011;2998;48.206;16.394;2023-02-13T12:39:29;7.17;;;6.57;;
5945;SDS011;2998;48.206;16.394;2023-02-13T12:42:02;7.23;;;6.67;;
5945;SDS011;2998;48.206;16.394;2023-02-13T12:44:44;5.60;;;5.20;;
5945;SDS011;2998;48.206;16.394;2023-02-13T12:47:18;6.00;;;5.50;;
5945;SDS011;2998;48.206;16.394;2023-02-13T12:49:52;5.83;;;5.33;;
5945;SDS011;2998;48.206;16.394;2023-02-13T12:52:44;8.40;;;7.60;;
5945;SDS011;2998;48.206;16.394;2023-02-13T12:55:34;7.37;;;6.57;;
5945;SDS011;2998;48.206;16.394;2023-02-13T12:58:30;7.10;;;6.50;;
5945;SDS011;2998;48.206;16.394;2023-02-13T13:01:18;6.37;;;5.87;;
5945;SDS011;2998;48.206;16.394;2023-02-13T13:03:51;5.80;;;5.40;;
5945;SDS011;2998;48.206;16.394;2023-02-13T13:06:30;8.40;;;7.13;;
5945;SDS011;2998;48.206;16.394;2023-02-13T13:09:09;6.50;;;5.90;;
5945;SDS011;2998;48.206;16.394;2023-02-13T13:12:00;6.30;;;5.80;;
5945;SDS011;2998;48.206;16.394;2023-02-13T13:14:35;6.80;;;6.10;;
5945;SDS011;2998;48.206;16.394;2023-02-13T13:17:10;6.60;;;6.10;;
5945;SDS011;2998;48.206;16.394;2023-02-13T13:19:48;6.57;;;5.97;;
5945;SDS011;2998;48.206;16.394;2023-02-13T13:22:20;6.43;;;5.83;;
5945;SDS011;2998;48.206;16.394;2023-02-13T13:24:56;6.63;;;6.13;;
5945;SDS011;2998;48.206;16.394;2023-02-13T13:27:30;7.93;;;7.10;;
5945;SDS011;2998;48.206;16.394;2023-02-13T13:30:00;6.80;;;6.30;;
5945;SDS011;2998;48.206;16.394;2023-02-13T13:32:30;13.10;;;10.80;;
5945;SDS011;2998;48.206;16.394;2023-02-13T13:34:59;17.50;;;12.30;;
5945;SDS011;2998;48.206;16.394;2023-02-13T13:37:29;28.77;;;17.27;;
5945;SDS011;2998;48.206;16.394;2023-02-13T13:40:02;31.80;;;17.90;;
5945;SDS011;2998;48.206;16.394;2023-02-13T13:42:40;13.83;;;10.37;;
5945;SDS011;2998;48.206;16.394;2023-02-13T13:45:21;35.43;;;18.20;;
5945;SDS011;2998;48.206;16.394;2023-02-13T13:47:56;18.47;;;13.93;;
5945;SDS011;2998;48.206;16.394;2023-02-13T13:50:43;9.50;;;8.50;;
5945;SDS011;2998;48.206;16.394;2023-02-13T13:53:12;19.73;;;13.50;;
5945;SDS011;2998;48.206;16.394;2023-02-13T13:56:02;13.40;;;10.60;;
5945;SDS011;2998;48.206;16.394;2023-02-13T13:58:35;11.63;;;8.70;;
5945;SDS011;2998;48.206;16.394;2023-02-13T14:03:58;15.40;;;11.30;;
5945;SDS011;2998;48.206;16.394;2023-02-13T14:09:39;8.50;;;7.73;;
5945;SDS011;2998;48.206;16.394;2023-02-13T14:18:15;10.20;;;9.20;;
5945;SDS011;2998;48.206;16.394;2023-02-13T14:20:49;9.63;;;8.63;;
5945;SDS011;2998;48.206;16.394;2023-02-13T14:23:21;9.63;;;8.70;;
5945;SDS011;2998;48.206;16.394;2023-02-13T14:29:01;9.20;;;8.10;;
5945;SDS011;2998;48.206;16.394;2023-02-13T14:31:50;12.80;;;9.23;;
5945;SDS011;2998;48.206;16.394;2023-02-13T14:34:24;8.67;;;7.87;;
5945;SDS011;2998;48.206;16.394;2023-02-13T14:37:04;10.10;;;9.10;;
5945;SDS011;2998;48.206;16.394;2023-02-13T14:42:41;9.63;;;8.30;;
5945;SDS011;2998;48.206;16.394;2023-02-13T14:45:14;8.23;;;7.50;;
5945;SDS011;2998;48.206;16.394;2023-02-13T14:47:44;11.80;;;6.80;;
5945;SDS011;2998;48.206;16.394;2023-02-13T14:50:19;6.70;;;6.10;;
5945;SDS011;2998;48.206;16.394;2023-02-13T14:52:50;6.40;;;5.87;;
5945;SDS011;2998;48.206;16.394;2023-02-13T14:55:19;5.80;;;5.33;;
5945;SDS011;2998;48.206;16.394;2023-02-13T14:57:57;6.90;;;6.20;;
5945;SDS011;2998;48.206;16.394;2023-02-13T15:00:33;6.83;;;6.23;;
5945;SDS011;2998;48.206;16.394;2023-02-13T15:03:07;7.30;;;6.70;;
5945;SDS011;2998;48.206;16.394;2023-02-13T15:05:40;7.23;;;6.63;;
5945;SDS011;2998;48.206;16.394;2023-02-13T15:08:11;7.33;;;6.67;;
5945;SDS011;2998;48.206;16.394;2023-02-13T15:10:44;7.10;;;6.40;;
5945;SDS011;2998;48.206;16.394;2023-02-13T15:13:14;6.30;;;5.60;;
5945;SDS011;2998;48.206;16.394;2023-02-13T15:15:47;7.77;;;6.97;;
5945;SDS011;2998;48.206;16.394;2023-02-13T15:18:18;8.00;;;7.30;;
5945;SDS011;2998;48.206;16.394;2023-02-13T15:20:47;6.83;;;6.23;;
5945;SDS011;2998;48.206;16.394;2023-02-13T15:23:18;7.07;;;6.40;;
5945;SDS011;2998;48.206;16.394;2023-02-13T15:25:47;7.07;;;6.37;;
5945;SDS011;2998;48.206;16.394;2023-02-13T15:28:23;7.30;;;6.70;;
5945;SDS011;2998;48.206;16.394;2023-02-13T15:30:54;7.80;;;6.73;;
5945;SDS011;2998;48.206;16.394;2023-02-13T15:33:24;9.70;;;7.07;;
5945;SDS011;2998;48.206;16.394;2023-02-13T15:35:53;8.83;;;7.97;;
5945;SDS011;2998;48.206;16.394;2023-02-13T15:38:23;8.23;;;7.00;;
5945;SDS011;2998;48.206;16.394;2023-02-13T15:40:54;6.60;;;6.00;;